sensor_id;sensor_type;location;lat;lon;timestamp;pressure;altitude;pressure_sealevel;temperature;humidity
59289;BME280;45056;47.602;9.886;2023-12-04T00:01:58;92863.41;;;-5.28;57.39
59289;BME280;45056;47.602;9.886;2023-12-04T00:04:26;92855.44;;;-5.28;57.13
59289;BME280;45056;47.602;9.886;2023-12-04T00:06:54;92859.22;;;-5.29;57.11
59289;BME280;45056;47.602;9.886;2023-12-04T00:09:22;92842.84;;;-5.31;57.14
59289;BME280;45056;47.602;9.886;2023-12-04T00:11:51;92848.16;;;-5.31;57.93
59289;BME280;45056;47.602;9.886;2023-12-04T00:14:19;92841.41;;;-5.29;57.74
59289;BME280;45056;47.602;9.886;2023-12-04T00:16:48;92843.28;;;-5.29;57.34
59289;BME280;45056;47.602;9.886;2023-12-04T00:19:16;92834.13;;;-5.32;57.18
59289;BME280;45056;47.602;9.886;2023-12-04T00:21:44;92836.34;;;-5.34;57.30
59289;BME280;45056;47.602;9.886;2023-12-04T00:24:12;92825.22;;;-5.40;57.44
59289;BME280;45056;47.602;9.886;2023-12-04T00:26:40;92820.97;;;-5.44;57.29
59289;BME280;45056;47.602;9.886;2023-12-04T00:29:08;92810.28;;;-5.48;57.87
59289;BME280;45056;47.602;9.886;2023-12-04T00:31:36;92810.28;;;-5.48;57.64
59289;BME280;45056;47.602;9.886;2023-12-04T00:34:05;92815.56;;;-5.48;57.63
59289;BME280;45056;47.602;9.886;2023-12-04T00:36:33;92811.81;;;-5.47;57.07
59289;BME280;45056;47.602;9.886;2023-12-04T00:39:01;92806.84;;;-5.48;56.91
59289;BME280;45056;47.602;9.886;2023-12-04T00:41:30;92804.19;;;-5.48;57.21
59289;BME280;45056;47.602;9.886;2023-12-04T00:43:58;92802.31;;;-5.48;57.27
59289;BME280;45056;47.602;9.886;2023-12-04T00:46:26;92792.81;;;-5.49;56.86
59289;BME280;45056;47.602;9.886;2023-12-04T00:48:54;92784.09;;;-5.50;56.88
59289;BME280;45056;47.602;9.886;2023-12-04T00:51:23;92782.91;;;-5.52;56.89
59289;BME280;45056;47.602;9.886;2023-12-04T00:53:52;92782.91;;;-5.52;57.26
59289;BME280;45056;47.602;9.886;2023-12-04T00:56:20;92762.44;;;-5.52;57.14
59289;BME280;45056;47.602;9.886;2023-12-04T00:58:48;92756.41;;;-5.52;57.26
59289;BME280;45056;47.602;9.886;2023-12-04T01:01:16;92758.63;;;-5.54;56.93
59289;BME280;45056;47.602;9.886;2023-12-04T01:03:44;92742.63;;;-5.58;57.11
59289;BME280;45056;47.602;9.886;2023-12-04T01:06:20;92744.84;;;-5.60;57.06
59289;BME280;45056;47.602;9.886;2023-12-04T01:08:50;92745.53;;;-5.63;57.42
59289;BME280;45056;47.602;9.886;2023-12-04T01:11:18;92737.91;;;-5.65;57.13
59289;BME280;45056;47.602;9.886;2023-12-04T01:13:47;92734.84;;;-5.67;56.93
59289;BME280;45056;47.602;9.886;2023-12-04T01:16:16;92730.31;;;-5.66;57.29
59289;BME280;45056;47.602;9.886;2023-12-04T01:18:44;92734.50;;;-5.65;57.07
59289;BME280;45056;47.602;9.886;2023-12-04T01:21:12;92730.75;;;-5.64;57.15
59289;BME280;45056;47.602;9.886;2023-12-04T01:23:40;92725.03;;;-5.66;57.03
59289;BME280;45056;47.602;9.886;2023-12-04T01:26:10;92730.66;;;-5.68;57.15
59289;BME280;45056;47.602;9.886;2023-12-04T01:28:38;92725.34;;;-5.68;57.36
59289;BME280;45056;47.602;9.886;2023-12-04T01:31:07;92730.66;;;-5.68;57.33
59289;BME280;45056;47.602;9.886;2023-12-04T01:33:34;92726.47;;;-5.69;56.76
59289;BME280;45056;47.602;9.886;2023-12-04T01:36:03;92723.38;;;-5.71;56.88
59289;BME280;45056;47.602;9.886;2023-12-04T01:38:32;92717.25;;;-5.75;56.78
59289;BME280;45056;47.602;9.886;2023-12-04T01:41:00;92734.59;;;-5.77;56.77
59289;BME280;45056;47.602;9.886;2023-12-04T01:43:29;92737.59;;;-5.79;56.61
59289;BME280;45056;47.602;9.886;2023-12-04T01:45:59;92737.59;;;-5.79;57.04
59289;BME280;45056;47.602;9.886;2023-12-04T01:48:28;92736.91;;;-5.76;57.06
59289;BME280;45056;47.602;9.886;2023-12-04T01:51:00;92723.31;;;-5.74;57.13
59289;BME280;45056;47.602;9.886;2023-12-04T01:53:35;92736.56;;;-5.74;57.60
59289;BME280;45056;47.602;9.886;2023-12-04T01:56:05;92731.28;;;-5.74;57.50
59289;BME280;45056;47.602;9.886;2023-12-04T01:58:36;92727.84;;;-5.75;56.86
59289;BME280;45056;47.602;9.886;2023-12-04T02:01:05;92731.94;;;-5.77;56.78
59289;BME280;45056;47.602;9.886;2023-12-04T02:03:35;92734.59;;;-5.77;57.15
59289;BME280;45056;47.602;9.886;2023-12-04T02:06:05;92741.00;;;-5.79;57.18
59289;BME280;45056;47.602;9.886;2023-12-04T02:08:35;92739.81;;;-5.81;57.14
59289;BME280;45056;47.602;9.886;2023-12-04T02:11:04;92742.03;;;-5.83;57.00
59289;BME280;45056;47.602;9.886;2023-12-04T02:13:32;92743.47;;;-5.86;57.50
59289;BME280;45056;47.602;9.886;2023-12-04T02:16:04;92750.69;;;-5.86;57.59
59289;BME280;45056;47.602;9.886;2023-12-04T02:18:36;92743.47;;;-5.86;57.25
59289;BME280;45056;47.602;9.886;2023-12-04T02:21:06;92745.38;;;-5.86;57.33
59289;BME280;45056;47.602;9.886;2023-12-04T02:23:34;92742.72;;;-5.86;57.38
59289;BME280;45056;47.602;9.886;2023-12-04T02:26:10;92736.66;;;-5.87;57.18
59289;BME280;45056;47.602;9.886;2023-12-04T02:28:48;92733.66;;;-5.85;57.57
59289;BME280;45056;47.602;9.886;2023-12-04T02:31:24;92742.72;;;-5.86;57.43
59289;BME280;45056;47.602;9.886;2023-12-04T02:33:56;92738.13;;;-5.89;57.15
59289;BME280;45056;47.602;9.886;2023-12-04T02:36:30;92736.59;;;-5.90;57.21
59289;BME280;45056;47.602;9.886;2023-12-04T02:38:59;92728.97;;;-5.92;56.82
59289;BME280;45056;47.602;9.886;2023-12-04T02:41:29;92722.03;;;-5.97;57.34
59289;BME280;45056;47.602;9.886;2023-12-04T02:43:57;92722.38;;;-5.98;57.35
59289;BME280;45056;47.602;9.886;2023-12-04T02:46:25;92713.66;;;-5.99;57.24
59289;BME280;45056;47.602;9.886;2023-12-04T02:48:53;92712.13;;;-6.00;57.12
59289;BME280;45056;47.602;9.886;2023-12-04T02:51:21;92713.66;;;-5.99;57.00
59289;BME280;45056;47.602;9.886;2023-12-04T02:53:49;92713.66;;;-5.99;57.06
59289;BME280;45056;47.602;9.886;2023-12-04T02:56:17;92720.06;;;-6.00;56.82
59289;BME280;45056;47.602;9.886;2023-12-04T02:58:46;92718.19;;;-5.99;56.79
59289;BME280;45056;47.602;9.886;2023-12-04T03:01:14;92721.28;;;-5.97;56.77
59289;BME280;45056;47.602;9.886;2023-12-04T03:03:42;92711.00;;;-5.99;56.84
59289;BME280;45056;47.602;9.886;2023-12-04T03:06:10;92704.59;;;-5.98;56.79
59289;BME280;45056;47.602;9.886;2023-12-04T03:08:38;92707.25;;;-5.98;57.20
59289;BME280;45056;47.602;9.886;2023-12-04T03:11:06;92705.78;;;-5.95;57.33
59289;BME280;45056;47.602;9.886;2023-12-04T03:13:34;92696.41;;;-5.92;57.15
59289;BME280;45056;47.602;9.886;2023-12-04T03:16:04;92693.75;;;-5.92;57.23
59289;BME280;45056;47.602;9.886;2023-12-04T03:18:32;92683.16;;;-5.92;57.25
59289;BME280;45056;47.602;9.886;2023-12-04T03:21:00;92687.69;;;-5.93;57.50
59289;BME280;45056;47.602;9.886;2023-12-04T03:23:28;92691.09;;;-5.92;57.35
59289;BME280;45056;47.602;9.886;2023-12-04T03:25:56;92671.00;;;-5.94;56.76
59289;BME280;45056;47.602;9.886;2023-12-04T03:28:24;92669.13;;;-5.93;57.04
59289;BME280;45056;47.602;9.886;2023-12-04T03:30:52;92661.97;;;-5.92;57.11
59289;BME280;45056;47.602;9.886;2023-12-04T03:33:21;92657.84;;;-5.90;56.94
59289;BME280;45056;47.602;9.886;2023-12-04T03:35:49;92660.50;;;-5.90;56.78
59289;BME280;45056;47.602;9.886;2023-12-04T03:38:17;92658.53;;;-5.93;56.56
59289;BME280;45056;47.602;9.886;2023-12-04T03:40:45;92659.97;;;-5.96;56.64
59289;BME280;45056;47.602;9.886;2023-12-04T03:43:13;92658.00;;;-5.99;56.51
59289;BME280;45056;47.602;9.886;2023-12-04T03:45:41;92655.38;;;-5.99;56.96
59289;BME280;45056;47.602;9.886;2023-12-04T03:48:08;92658.38;;;-6.00;57.19
59289;BME280;45056;47.602;9.886;2023-12-04T03:50:37;92649.25;;;-6.03;57.85
59289;BME280;45056;47.602;9.886;2023-12-04T03:53:05;92639.75;;;-6.04;58.03
59289;BME280;45056;47.602;9.886;2023-12-04T03:55:33;92644.38;;;-6.01;57.80
59289;BME280;45056;47.602;9.886;2023-12-04T03:58:03;92642.13;;;-5.99;57.77
59289;BME280;45056;47.602;9.886;2023-12-04T04:00:31;92644.38;;;-6.01;57.61
59289;BME280;45056;47.602;9.886;2023-12-04T04:02:59;92639.81;;;-6.00;57.54
59289;BME280;45056;47.602;9.886;2023-12-04T04:05:27;92641.72;;;-6.01;57.07
59289;BME280;45056;47.602;9.886;2023-12-04T04:07:57;92637.53;;;-6.02;57.26
59289;BME280;45056;47.602;9.886;2023-12-04T04:10:25;92630.38;;;-6.01;57.22
59289;BME280;45056;47.602;9.886;2023-12-04T04:12:52;92639.47;;;-5.99;57.12
59289;BME280;45056;47.602;9.886;2023-12-04T04:15:20;92628.13;;;-5.99;56.94
59289;BME280;45056;47.602;9.886;2023-12-04T04:17:48;92633.78;;;-6.01;57.13
59289;BME280;45056;47.602;9.886;2023-12-04T04:20:17;92635.66;;;-6.01;57.40
59289;BME280;45056;47.602;9.886;2023-12-04T04:22:47;92615.91;;;-6.04;57.33
59289;BME280;45056;47.602;9.886;2023-12-04T04:25:17;92620.09;;;-6.03;57.27
59289;BME280;45056;47.602;9.886;2023-12-04T04:27:45;92619.00;;;-6.02;57.32
59289;BME280;45056;47.602;9.886;2023-12-04T04:30:13;92625.06;;;-6.01;57.54
59289;BME280;45056;47.602;9.886;2023-12-04T04:32:41;92629.59;;;-6.02;57.22
59289;BME280;45056;47.602;9.886;2023-12-04T04:35:09;92625.81;;;-6.01;57.41
59289;BME280;45056;47.602;9.886;2023-12-04T04:37:37;92612.94;;;-6.02;57.70
59289;BME280;45056;47.602;9.886;2023-12-04T04:40:06;92617.81;;;-6.04;57.82
59289;BME280;45056;47.602;9.886;2023-12-04T04:42:36;92618.56;;;-6.04;58.29
59289;BME280;45056;47.602;9.886;2023-12-04T04:45:05;92608.75;;;-6.03;57.86
59289;BME280;45056;47.602;9.886;2023-12-04T04:47:33;92611.44;;;-6.00;58.24
59289;BME280;45056;47.602;9.886;2023-12-04T04:50:01;92605.44;;;-5.97;58.15
59289;BME280;45056;47.602;9.886;2023-12-04T04:52:29;92605.13;;;-5.95;58.10
59289;BME280;45056;47.602;9.886;2023-12-04T04:54:57;92604.69;;;-5.97;58.06
59289;BME280;45056;47.602;9.886;2023-12-04T04:57:25;92605.03;;;-5.99;57.79
59289;BME280;45056;47.602;9.886;2023-12-04T04:59:54;92601.25;;;-5.98;57.60
59289;BME280;45056;47.602;9.886;2023-12-04T05:02:22;92600.16;;;-5.97;57.97
59289;BME280;45056;47.602;9.886;2023-12-04T05:04:50;92598.69;;;-5.94;57.88
59289;BME280;45056;47.602;9.886;2023-12-04T05:07:18;92595.28;;;-5.95;58.20
59289;BME280;45056;47.602;9.886;2023-12-04T05:09:46;92588.84;;;-5.94;57.94
59289;BME280;45056;47.602;9.886;2023-12-04T05:12:14;92582.81;;;-5.94;57.84
59289;BME280;45056;47.602;9.886;2023-12-04T05:14:42;92592.28;;;-5.93;58.42
59289;BME280;45056;47.602;9.886;2023-12-04T05:17:12;92586.22;;;-5.94;58.51
59289;BME280;45056;47.602;9.886;2023-12-04T05:19:40;92584.00;;;-5.91;58.49
59289;BME280;45056;47.602;9.886;2023-12-04T05:22:08;92580.25;;;-5.90;58.59
59289;BME280;45056;47.602;9.886;2023-12-04T05:24:36;92578.44;;;-5.86;58.72
59289;BME280;45056;47.602;9.886;2023-12-04T05:27:04;92579.28;;;-5.82;58.77
59289;BME280;45056;47.602;9.886;2023-12-04T05:29:32;92576.53;;;-5.86;58.50
59289;BME280;45056;47.602;9.886;2023-12-04T05:32:00;92572.34;;;-5.87;58.37
59289;BME280;45056;47.602;9.886;2023-12-04T05:34:29;92571.50;;;-5.91;58.35
59289;BME280;45056;47.602;9.886;2023-12-04T05:36:57;92567.00;;;-5.90;58.83
59289;BME280;45056;47.602;9.886;2023-12-04T05:39:25;92571.59;;;-5.87;59.14
59289;BME280;45056;47.602;9.886;2023-12-04T05:41:54;92567.13;;;-5.83;59.10
59289;BME280;45056;47.602;9.886;2023-12-04T05:44:21;92573.28;;;-5.79;59.15
59289;BME280;45056;47.602;9.886;2023-12-04T05:46:49;92568.81;;;-5.75;59.40
59289;BME280;45056;47.602;9.886;2023-12-04T05:49:17;92560.94;;;-5.71;59.62
59289;BME280;45056;47.602;9.886;2023-12-04T05:51:46;92570.50;;;-5.67;59.37
59289;BME280;45056;47.602;9.886;2023-12-04T05:54:14;92571.31;;;-5.62;59.77
59289;BME280;45056;47.602;9.886;2023-12-04T05:56:42;92568.44;;;-5.57;59.89
59289;BME280;45056;47.602;9.886;2023-12-04T05:59:10;92566.94;;;-5.55;59.69
59289;BME280;45056;47.602;9.886;2023-12-04T06:01:38;92560.94;;;-5.52;59.58
59289;BME280;45056;47.602;9.886;2023-12-04T06:04:06;92561.03;;;-5.48;59.44
59289;BME280;45056;47.602;9.886;2023-12-04T06:06:35;92567.53;;;-5.45;59.45
59289;BME280;45056;47.602;9.886;2023-12-04T06:09:05;92561.84;;;-5.44;59.89
59289;BME280;45056;47.602;9.886;2023-12-04T06:11:33;92555.09;;;-5.41;59.72
59289;BME280;45056;47.602;9.886;2023-12-04T06:14:01;92551.75;;;-5.38;60.16
59289;BME280;45056;47.602;9.886;2023-12-04T06:16:29;92554.44;;;-5.34;59.84
59289;BME280;45056;47.602;9.886;2023-12-04T06:18:57;92556.06;;;-5.30;59.95
59289;BME280;45056;47.602;9.886;2023-12-04T06:21:25;92549.31;;;-5.27;60.35
59289;BME280;45056;47.602;9.886;2023-12-04T06:23:53;92532.69;;;-5.24;60.33
59289;BME280;45056;47.602;9.886;2023-12-04T06:26:24;92534.63;;;-5.21;60.21
59289;BME280;45056;47.602;9.886;2023-12-04T06:28:53;92535.38;;;-5.21;59.93
59289;BME280;45056;47.602;9.886;2023-12-04T06:31:22;92536.56;;;-5.18;60.08
59289;BME280;45056;47.602;9.886;2023-12-04T06:33:51;92531.69;;;-5.16;60.11
59289;BME280;45056;47.602;9.886;2023-12-04T06:36:21;92529.44;;;-5.14;59.98
59289;BME280;45056;47.602;9.886;2023-12-04T06:38:52;92515.44;;;-5.14;60.61
59289;BME280;45056;47.602;9.886;2023-12-04T06:41:24;92505.97;;;-5.12;60.33
59289;BME280;45056;47.602;9.886;2023-12-04T06:43:52;92509.81;;;-5.09;61.04
59289;BME280;45056;47.602;9.886;2023-12-04T06:46:23;92506.47;;;-5.06;61.11
59289;BME280;45056;47.602;9.886;2023-12-04T06:48:57;92511.06;;;-5.03;61.20
59289;BME280;45056;47.602;9.886;2023-12-04T06:51:27;92497.44;;;-5.01;61.19
59289;BME280;45056;47.602;9.886;2023-12-04T06:53:55;92500.50;;;-4.99;61.50
59289;BME280;45056;47.602;9.886;2023-12-04T06:56:24;92494.50;;;-4.96;61.82
59289;BME280;45056;47.602;9.886;2023-12-04T06:58:52;92495.31;;;-4.92;61.77
59289;BME280;45056;47.602;9.886;2023-12-04T07:01:20;92495.75;;;-4.90;61.34
59289;BME280;45056;47.602;9.886;2023-12-04T07:03:49;92501.88;;;-4.86;61.71
59289;BME280;45056;47.602;9.886;2023-12-04T07:06:17;92498.50;;;-4.83;61.57
59289;BME280;45056;47.602;9.886;2023-12-04T07:08:45;92492.47;;;-4.80;61.78
59289;BME280;45056;47.602;9.886;2023-12-04T07:11:13;92495.63;;;-4.74;62.09
59289;BME280;45056;47.602;9.886;2023-12-04T07:13:43;92504.03;;;-4.68;61.85
59289;BME280;45056;47.602;9.886;2023-12-04T07:16:11;92492.75;;;-4.61;61.91
59289;BME280;45056;47.602;9.886;2023-12-04T07:18:39;92482.94;;;-4.57;61.93
59289;BME280;45056;47.602;9.886;2023-12-04T07:21:07;92483.00;;;-4.54;61.63
59289;BME280;45056;47.602;9.886;2023-12-04T07:23:36;92492.91;;;-4.51;61.40
59289;BME280;45056;47.602;9.886;2023-12-04T07:26:04;92493.34;;;-4.49;61.33
59289;BME280;45056;47.602;9.886;2023-12-04T07:28:33;92488.09;;;-4.45;61.54
59289;BME280;45056;47.602;9.886;2023-12-04T07:31:03;92490.78;;;-4.41;61.74
59289;BME280;45056;47.602;9.886;2023-12-04T07:33:32;92489.72;;;-4.37;62.02
59289;BME280;45056;47.602;9.886;2023-12-04T07:36:00;92493.97;;;-4.32;62.65
59289;BME280;45056;47.602;9.886;2023-12-04T07:38:28;92494.72;;;-4.31;62.97
59289;BME280;45056;47.602;9.886;2023-12-04T07:40:57;92482.25;;;-4.27;63.03
59289;BME280;45056;47.602;9.886;2023-12-04T07:43:23;92489.56;;;-4.21;63.21
59289;BME280;45056;47.602;9.886;2023-12-04T07:45:51;92488.13;;;-4.14;63.30
59289;BME280;45056;47.602;9.886;2023-12-04T07:48:21;92487.41;;;-4.11;63.00
59289;BME280;45056;47.602;9.886;2023-12-04T07:50:49;92486.25;;;-4.10;62.78
59289;BME280;45056;47.602;9.886;2023-12-04T07:53:17;92495.06;;;-4.06;62.75
59289;BME280;45056;47.602;9.886;2023-12-04T07:55:45;92496.69;;;-3.98;62.89
59289;BME280;45056;47.602;9.886;2023-12-04T07:58:14;92499.03;;;-3.93;62.96
59289;BME280;45056;47.602;9.886;2023-12-04T08:00:43;92499.13;;;-3.85;62.93
59289;BME280;45056;47.602;9.886;2023-12-04T08:03:11;92493.13;;;-3.79;63.06
59289;BME280;45056;47.602;9.886;2023-12-04T08:05:40;92492.81;;;-3.73;63.39
59289;BME280;45056;47.602;9.886;2023-12-04T08:08:08;92495.53;;;-3.70;63.46
59289;BME280;45056;47.602;9.886;2023-12-04T08:10:36;92482.31;;;-3.63;63.66
59289;BME280;45056;47.602;9.886;2023-12-04T08:13:04;92474.34;;;-3.59;64.12
59289;BME280;45056;47.602;9.886;2023-12-04T08:15:32;92468.34;;;-3.52;64.45
59289;BME280;45056;47.602;9.886;2023-12-04T08:18:00;92470.75;;;-3.43;64.64
59289;BME280;45056;47.602;9.886;2023-12-04T08:20:29;92470.81;;;-3.36;64.55
59289;BME280;45056;47.602;9.886;2023-12-04T08:22:58;92457.91;;;-3.34;64.18
59289;BME280;45056;47.602;9.886;2023-12-04T08:25:26;92449.56;;;-3.33;64.43
59289;BME280;45056;47.602;9.886;2023-12-04T08:27:54;92444.25;;;-3.29;64.41
59289;BME280;45056;47.602;9.886;2023-12-04T08:30:22;92442.03;;;-3.23;64.83
59289;BME280;45056;47.602;9.886;2023-12-04T08:32:50;92431.84;;;-3.17;64.85
59289;BME280;45056;47.602;9.886;2023-12-04T08:35:18;92432.69;;;-3.10;64.88
59289;BME280;45056;47.602;9.886;2023-12-04T08:37:46;92435.75;;;-3.04;65.36
59289;BME280;45056;47.602;9.886;2023-12-04T08:40:15;92425.56;;;-2.95;65.38
59289;BME280;45056;47.602;9.886;2023-12-04T08:42:44;92425.25;;;-2.86;65.42
59289;BME280;45056;47.602;9.886;2023-12-04T08:45:12;92428.00;;;-2.75;64.88
59289;BME280;45056;47.602;9.886;2023-12-04T08:47:40;92426.16;;;-2.67;64.88
59289;BME280;45056;47.602;9.886;2023-12-04T08:50:08;92431.91;;;-2.58;64.69
59289;BME280;45056;47.602;9.886;2023-12-04T08:52:36;92430.81;;;-2.50;65.15
59289;BME280;45056;47.602;9.886;2023-12-04T08:55:08;92419.09;;;-2.41;64.80
59289;BME280;45056;47.602;9.886;2023-12-04T08:57:38;92423.31;;;-2.33;64.89
59289;BME280;45056;47.602;9.886;2023-12-04T09:00:08;92408.50;;;-2.27;65.13
59289;BME280;45056;47.602;9.886;2023-12-04T09:02:36;92417.31;;;-2.19;65.26
59289;BME280;45056;47.602;9.886;2023-12-04T09:05:05;92418.47;;;-2.13;64.88
59289;BME280;45056;47.602;9.886;2023-12-04T09:07:35;92431.13;;;-2.03;64.77
59289;BME280;45056;47.602;9.886;2023-12-04T09:10:03;92425.03;;;-1.96;64.41
59289;BME280;45056;47.602;9.886;2023-12-04T09:12:32;92430.41;;;-1.85;64.46
59289;BME280;45056;47.602;9.886;2023-12-04T09:15:04;92424.75;;;-1.76;64.26
59289;BME280;45056;47.602;9.886;2023-12-04T09:17:32;92435.06;;;-1.67;63.86
59289;BME280;45056;47.602;9.886;2023-12-04T09:20:00;92437.38;;;-1.58;63.82
59289;BME280;45056;47.602;9.886;2023-12-04T09:22:29;92429.75;;;-1.53;63.91
59289;BME280;45056;47.602;9.886;2023-12-04T09:24:57;92418.72;;;-1.48;63.63
59289;BME280;45056;47.602;9.886;2023-12-04T09:27:25;92428.66;;;-1.41;63.90
59289;BME280;45056;47.602;9.886;2023-12-04T09:29:53;92427.53;;;-1.33;63.82
59289;BME280;45056;47.602;9.886;2023-12-04T09:32:22;92421.44;;;-1.26;63.80
59289;BME280;45056;47.602;9.886;2023-12-04T09:34:50;92417.63;;;-1.18;63.55
59289;BME280;45056;47.602;9.886;2023-12-04T09:37:18;92420.31;;;-1.10;63.75
59289;BME280;45056;47.602;9.886;2023-12-04T09:39:46;92409.25;;;-1.02;63.73
59289;BME280;45056;47.602;9.886;2023-12-04T09:42:16;92403.94;;;-0.91;64.07
59289;BME280;45056;47.602;9.886;2023-12-04T09:44:48;92410.44;;;-0.81;64.01
59289;BME280;45056;47.602;9.886;2023-12-04T09:47:17;92401.66;;;-0.74;63.89
59289;BME280;45056;47.602;9.886;2023-12-04T09:49:49;92406.59;;;-0.65;63.98
59289;BME280;45056;47.602;9.886;2023-12-04T09:52:19;92405.06;;;-0.59;63.96
59289;BME280;45056;47.602;9.886;2023-12-04T09:54:47;92410.44;;;-0.59;63.79
59289;BME280;45056;47.602;9.886;2023-12-04T09:57:16;92400.50;;;-0.62;63.98
59289;BME280;45056;47.602;9.886;2023-12-04T09:59:47;92391.72;;;-0.63;64.04
59289;BME280;45056;47.602;9.886;2023-12-04T10:02:16;92391.72;;;-0.63;64.18
59289;BME280;45056;47.602;9.886;2023-12-04T10:04:45;92395.16;;;-0.62;64.06
59289;BME280;45056;47.602;9.886;2023-12-04T10:07:15;92405.06;;;-0.59;64.37
59289;BME280;45056;47.602;9.886;2023-12-04T10:09:43;92413.44;;;-0.53;64.40
59289;BME280;45056;47.602;9.886;2023-12-04T10:12:11;92407.72;;;-0.45;64.37
59289;BME280;45056;47.602;9.886;2023-12-04T10:14:39;92390.50;;;-0.36;64.01
59289;BME280;45056;47.602;9.886;2023-12-04T10:17:14;92386.28;;;-0.26;64.20
59289;BME280;45056;47.602;9.886;2023-12-04T10:19:44;92381.69;;;-0.19;64.34
59289;BME280;45056;47.602;9.886;2023-12-04T10:22:13;92380.53;;;-0.10;64.04
59289;BME280;45056;47.602;9.886;2023-12-04T10:24:41;92382.03;;;-0.02;64.11
59289;BME280;45056;47.602;9.886;2023-12-04T10:27:09;92380.88;;;0.03;64.01
59289;BME280;45056;47.602;9.886;2023-12-04T10:29:44;92385.06;;;0.04;63.88
59289;BME280;45056;47.602;9.886;2023-12-04T10:32:14;92388.84;;;0.10;63.63
59289;BME280;45056;47.602;9.886;2023-12-04T10:34:46;92381.59;;;0.14;63.41
59289;BME280;45056;47.602;9.886;2023-12-04T10:37:16;92375.06;;;0.19;63.20
59289;BME280;45056;47.602;9.886;2023-12-04T10:39:47;92375.81;;;0.23;62.94
59289;BME280;45056;47.602;9.886;2023-12-04T10:42:26;92374.66;;;0.27;62.71
59289;BME280;45056;47.602;9.886;2023-12-04T10:44:56;92376.56;;;0.31;62.84
59289;BME280;45056;47.602;9.886;2023-12-04T10:47:25;92376.53;;;0.34;62.64
59289;BME280;45056;47.602;9.886;2023-12-04T10:49:54;92371.19;;;0.34;62.31
59289;BME280;45056;47.602;9.886;2023-12-04T10:52:24;92371.16;;;0.38;62.54
59289;BME280;45056;47.602;9.886;2023-12-04T10:54:52;92372.69;;;0.39;62.32
59289;BME280;45056;47.602;9.886;2023-12-04T10:57:24;92360.03;;;0.43;62.20
59289;BME280;45056;47.602;9.886;2023-12-04T10:59:57;92341.28;;;0.47;61.88
59289;BME280;45056;47.602;9.886;2023-12-04T11:02:33;92348.91;;;0.52;61.96
59289;BME280;45056;47.602;9.886;2023-12-04T11:05:08;92345.00;;;0.64;61.73
59289;BME280;45056;47.602;9.886;2023-12-04T11:07:44;92337.22;;;0.88;61.28
59289;BME280;45056;47.602;9.886;2023-12-04T11:10:21;92339.31;;;1.11;60.94
59289;BME280;45056;47.602;9.886;2023-12-04T11:12:56;92326.19;;;1.24;60.18
59289;BME280;45056;47.602;9.886;2023-12-04T11:15:34;92328.50;;;1.25;59.37
59289;BME280;45056;47.602;9.886;2023-12-04T11:18:07;92322.75;;;1.23;59.76
59289;BME280;45056;47.602;9.886;2023-12-04T11:20:43;92323.13;;;1.25;60.00
59289;BME280;45056;47.602;9.886;2023-12-04T11:23:17;92319.28;;;1.26;60.00
59289;BME280;45056;47.602;9.886;2023-12-04T11:25:45;92318.13;;;1.27;59.77
59289;BME280;45056;47.602;9.886;2023-12-04T11:28:15;92336.09;;;1.31;59.83
59289;BME280;45056;47.602;9.886;2023-12-04T11:30:44;92339.88;;;1.37;59.71
59289;BME280;45056;47.602;9.886;2023-12-04T11:33:13;92340.19;;;1.42;60.09
59289;BME280;45056;47.602;9.886;2023-12-04T11:35:42;92326.00;;;1.46;60.13
59289;BME280;45056;47.602;9.886;2023-12-04T11:38:13;92328.28;;;1.47;60.01
59289;BME280;45056;47.602;9.886;2023-12-04T11:40:43;92319.78;;;1.52;59.93
59289;BME280;45056;47.602;9.886;2023-12-04T11:43:25;92315.72;;;1.75;59.97
59289;BME280;45056;47.602;9.886;2023-12-04T11:46:07;92322.19;;;2.12;59.52
59289;BME280;45056;47.602;9.886;2023-12-04T11:48:36;92318.69;;;2.47;59.29
59289;BME280;45056;47.602;9.886;2023-12-04T11:51:05;92326.69;;;2.78;58.27
59289;BME280;45056;47.602;9.886;2023-12-04T11:53:37;92324.56;;;2.93;57.63
59289;BME280;45056;47.602;9.886;2023-12-04T11:56:11;92313.72;;;3.00;57.07
59289;BME280;45056;47.602;9.886;2023-12-04T11:58:44;92287.75;;;3.13;56.85
59289;BME280;45056;47.602;9.886;2023-12-04T12:01:12;92274.53;;;3.23;56.48
59289;BME280;45056;47.602;9.886;2023-12-04T12:03:40;92276.97;;;3.17;56.04
59289;BME280;45056;47.602;9.886;2023-12-04T12:06:09;92282.44;;;3.10;56.22
59289;BME280;45056;47.602;9.886;2023-12-04T12:08:37;92281.25;;;3.11;56.79
59289;BME280;45056;47.602;9.886;2023-12-04T12:11:06;92293.78;;;3.21;56.53
59289;BME280;45056;47.602;9.886;2023-12-04T12:13:35;92294.78;;;3.31;56.27
59289;BME280;45056;47.602;9.886;2023-12-04T12:16:04;92295.69;;;3.44;56.10
59289;BME280;45056;47.602;9.886;2023-12-04T12:18:34;92283.34;;;3.47;54.96
59289;BME280;45056;47.602;9.886;2023-12-04T12:21:03;92288.50;;;3.38;55.19
59289;BME280;45056;47.602;9.886;2023-12-04T12:23:33;92276.00;;;3.27;55.38
59289;BME280;45056;47.602;9.886;2023-12-04T12:26:01;92270.06;;;3.16;55.76
59289;BME280;45056;47.602;9.886;2023-12-04T12:28:30;92269.97;;;3.20;56.34
59289;BME280;45056;47.602;9.886;2023-12-04T12:31:02;92266.97;;;3.38;56.09
59289;BME280;45056;47.602;9.886;2023-12-04T12:33:31;92265.47;;;3.57;55.22
59289;BME280;45056;47.602;9.886;2023-12-04T12:36:00;92260.81;;;3.81;54.19
59289;BME280;45056;47.602;9.886;2023-12-04T12:38:30;92243.88;;;4.01;54.05
59289;BME280;45056;47.602;9.886;2023-12-04T12:41:05;92242.31;;;4.20;53.85
59289;BME280;45056;47.602;9.886;2023-12-04T12:43:37;92241.13;;;4.41;53.67
59289;BME280;45056;47.602;9.886;2023-12-04T12:46:07;92234.88;;;4.61;52.55
59289;BME280;45056;47.602;9.886;2023-12-04T12:48:35;92223.47;;;4.73;52.09
59289;BME280;45056;47.602;9.886;2023-12-04T12:51:04;92236.59;;;4.88;51.38
59289;BME280;45056;47.602;9.886;2023-12-04T12:53:34;92233.56;;;5.02;51.14
59289;BME280;45056;47.602;9.886;2023-12-04T12:56:03;92247.00;;;5.19;50.06
59289;BME280;45056;47.602;9.886;2023-12-04T12:58:33;92241.59;;;5.36;49.66
59289;BME280;45056;47.602;9.886;2023-12-04T13:01:01;92232.66;;;5.39;49.24
59289;BME280;45056;47.602;9.886;2023-12-04T13:03:31;92230.41;;;5.20;49.54
59289;BME280;45056;47.602;9.886;2023-12-04T13:05:59;92222.84;;;4.99;50.21
59289;BME280;45056;47.602;9.886;2023-12-04T13:08:27;92229.94;;;4.76;50.56
59289;BME280;45056;47.602;9.886;2023-12-04T13:10:55;92225.63;;;4.62;51.09
59289;BME280;45056;47.602;9.886;2023-12-04T13:13:23;92229.50;;;4.61;50.88